sensor_id;sensor_type;location;lat;lon;timestamp;temperature;humidity
37998;DHT22;24079;51.824;4.682;2022-10-29T00:01:44;15.00;99.90
37998;DHT22;24079;51.824;4.682;2022-10-29T00:04:10;15.00;99.90
37998;DHT22;24079;51.824;4.682;2022-10-29T00:06:36;15.00;99.90
37998;DHT22;24079;51.824;4.682;2022-10-29T00:09:02;15.00;99.90
37998;DHT22;24079;51.824;4.682;2022-10-29T00:11:27;15.00;99.90
37998;DHT22;24079;51.824;4.682;2022-10-29T00:13:58;15.00;99.90
37998;DHT22;24079;51.824;4.682;2022-10-29T00:16:27;15.00;99.90
37998;DHT22;24079;51.824;4.682;2022-10-29T00:18:54;15.00;99.90
37998;DHT22;24079;51.824;4.682;2022-10-29T00:21:21;15.00;99.90
37998;DHT22;24079;51.824;4.682;2022-10-29T00:23:47;15.00;99.90
37998;DHT22;24079;51.824;4.682;2022-10-29T00:26:13;15.00;99.90
37998;DHT22;24079;51.824;4.682;2022-10-29T00:28:39;15.00;99.90
37998;DHT22;24079;51.824;4.682;2022-10-29T00:31:07;14.90;99.90
37998;DHT22;24079;51.824;4.682;2022-10-29T00:33:34;14.90;99.90
37998;DHT22;24079;51.824;4.682;2022-10-29T00:36:01;14.90;99.90
37998;DHT22;24079;51.824;4.682;2022-10-29T00:38:30;14.90;99.90
37998;DHT22;24079;51.824;4.682;2022-10-29T00:40:55;14.80;99.90
37998;DHT22;24079;51.824;4.682;2022-10-29T00:43:24;14.80;99.90
37998;DHT22;24079;51.824;4.682;2022-10-29T00:48:22;14.70;99.90
37998;DHT22;24079;51.824;4.682;2022-10-29T00:50:50;14.70;99.90
37998;DHT22;24079;51.824;4.682;2022-10-29T00:53:18;14.80;99.90
37998;DHT22;24079;51.824;4.682;2022-10-29T00:55:45;14.70;99.90
37998;DHT22;24079;51.824;4.682;2022-10-29T00:58:11;14.70;99.90
37998;DHT22;24079;51.824;4.682;2022-10-29T01:00:37;14.70;99.90
37998;DHT22;24079;51.824;4.682;2022-10-29T01:03:06;14.80;99.90
37998;DHT22;24079;51.824;4.682;2022-10-29T01:05:33;14.80;99.90
37998;DHT22;24079;51.824;4.682;2022-10-29T01:08:00;14.80;99.90
37998;DHT22;24079;51.824;4.682;2022-10-29T01:22:07;14.80;99.90
37998;DHT22;24079;51.824;4.682;2022-10-29T01:24:49;14.70;99.90
37998;DHT22;24079;51.824;4.682;2022-10-29T01:30:19;14.70;99.90
37998;DHT22;24079;51.824;4.682;2022-10-29T01:33:05;14.70;99.90
37998;DHT22;24079;51.824;4.682;2022-10-29T01:41:23;14.50;99.90
37998;DHT22;24079;51.824;4.682;2022-10-29T01:43:53;14.50;99.90
37998;DHT22;24079;51.824;4.682;2022-10-29T01:48:57;14.40;99.90
37998;DHT22;24079;51.824;4.682;2022-10-29T01:51:28;14.40;99.90
37998;DHT22;24079;51.824;4.682;2022-10-29T01:53:54;14.30;99.90
37998;DHT22;24079;51.824;4.682;2022-10-29T01:56:21;14.30;99.90
37998;DHT22;24079;51.824;4.682;2022-10-29T01:58:49;14.20;99.90
37998;DHT22;24079;51.824;4.682;2022-10-29T02:07:19;14.20;99.90
37998;DHT22;24079;51.824;4.682;2022-10-29T02:12:46;14.30;99.90
37998;DHT22;24079;51.824;4.682;2022-10-29T02:15:28;14.30;99.90
37998;DHT22;24079;51.824;4.682;2022-10-29T02:17:59;14.30;99.90
37998;DHT22;24079;51.824;4.682;2022-10-29T02:20:25;14.20;99.90
37998;DHT22;24079;51.824;4.682;2022-10-29T02:22:51;14.30;99.90
37998;DHT22;24079;51.824;4.682;2022-10-29T02:25:17;14.30;99.90
37998;DHT22;24079;51.824;4.682;2022-10-29T02:27:42;14.30;99.90
37998;DHT22;24079;51.824;4.682;2022-10-29T02:30:08;14.30;99.90
37998;DHT22;24079;51.824;4.682;2022-10-29T02:32:34;14.20;99.90
37998;DHT22;24079;51.824;4.682;2022-10-29T02:35:00;14.30;99.90
37998;DHT22;24079;51.824;4.682;2022-10-29T02:37:26;14.30;99.90
37998;DHT22;24079;51.824;4.682;2022-10-29T02:39:52;14.20;99.90
37998;DHT22;24079;51.824;4.682;2022-10-29T02:42:17;14.20;99.90
37998;DHT22;24079;51.824;4.682;2022-10-29T02:44:43;14.20;99.90
37998;DHT22;24079;51.824;4.682;2022-10-29T02:47:08;14.20;99.90
37998;DHT22;24079;51.824;4.682;2022-10-29T02:49:34;14.20;99.90
37998;DHT22;24079;51.824;4.682;2022-10-29T02:51:59;14.20;99.90
37998;DHT22;24079;51.824;4.682;2022-10-29T02:54:25;14.20;99.90
37998;DHT22;24079;51.824;4.682;2022-10-29T02:56:51;14.10;99.90
37998;DHT22;24079;51.824;4.682;2022-10-29T02:59:16;14.10;99.90
37998;DHT22;24079;51.824;4.682;2022-10-29T03:01:42;14.20;99.90
37998;DHT22;24079;51.824;4.682;2022-10-29T03:04:09;14.10;99.90
37998;DHT22;24079;51.824;4.682;2022-10-29T03:06:35;14.10;99.90
37998;DHT22;24079;51.824;4.682;2022-10-29T03:09:02;14.10;99.90
37998;DHT22;24079;51.824;4.682;2022-10-29T03:11:27;14.10;99.90
37998;DHT22;24079;51.824;4.682;2022-10-29T03:13:53;14.00;99.90
37998;DHT22;24079;51.824;4.682;2022-10-29T03:16:18;14.00;99.90
37998;DHT22;24079;51.824;4.682;2022-10-29T03:18:44;14.00;99.90
37998;DHT22;24079;51.824;4.682;2022-10-29T03:21:10;14.00;99.90
37998;DHT22;24079;51.824;4.682;2022-10-29T03:23:35;14.00;99.90
37998;DHT22;24079;51.824;4.682;2022-10-29T03:26:01;14.00;99.90
37998;DHT22;24079;51.824;4.682;2022-10-29T03:28:27;14.10;99.90
37998;DHT22;24079;51.824;4.682;2022-10-29T03:30:53;14.10;99.90
37998;DHT22;24079;51.824;4.682;2022-10-29T03:33:18;14.10;99.90
37998;DHT22;24079;51.824;4.682;2022-10-29T03:35:44;14.10;99.90
37998;DHT22;24079;51.824;4.682;2022-10-29T03:38:10;14.10;99.90
37998;DHT22;24079;51.824;4.682;2022-10-29T03:40:35;14.10;99.90
37998;DHT22;24079;51.824;4.682;2022-10-29T03:43:01;14.10;99.90
37998;DHT22;24079;51.824;4.682;2022-10-29T03:45:26;14.20;99.90
37998;DHT22;24079;51.824;4.682;2022-10-29T03:47:52;14.10;99.90
37998;DHT22;24079;51.824;4.682;2022-10-29T03:50:17;14.10;99.90
37998;DHT22;24079;51.824;4.682;2022-10-29T03:52:43;14.10;99.90
37998;DHT22;24079;51.824;4.682;2022-10-29T03:55:08;14.10;99.90
37998;DHT22;24079;51.824;4.682;2022-10-29T03:57:34;14.00;99.90
37998;DHT22;24079;51.824;4.682;2022-10-29T04:00:00;14.00;99.90
37998;DHT22;24079;51.824;4.682;2022-10-29T04:02:29;14.10;99.90
37998;DHT22;24079;51.824;4.682;2022-10-29T04:04:54;14.10;99.90
37998;DHT22;24079;51.824;4.682;2022-10-29T04:07:20;14.00;99.90
37998;DHT22;24079;51.824;4.682;2022-10-29T04:09:45;14.00;99.90
37998;DHT22;24079;51.824;4.682;2022-10-29T04:12:11;14.00;99.90
37998;DHT22;24079;51.824;4.682;2022-10-29T04:14:36;14.00;99.90
37998;DHT22;24079;51.824;4.682;2022-10-29T04:17:02;14.10;99.90
37998;DHT22;24079;51.824;4.682;2022-10-29T04:19:28;14.10;99.90
37998;DHT22;24079;51.824;4.682;2022-10-29T04:21:53;14.20;99.90
37998;DHT22;24079;51.824;4.682;2022-10-29T04:24:19;14.20;99.90
37998;DHT22;24079;51.824;4.682;2022-10-29T04:26:44;14.10;99.90
37998;DHT22;24079;51.824;4.682;2022-10-29T04:29:10;14.20;99.90
37998;DHT22;24079;51.824;4.682;2022-10-29T04:31:36;14.20;99.90
37998;DHT22;24079;51.824;4.682;2022-10-29T04:34:02;14.10;99.90
37998;DHT22;24079;51.824;4.682;2022-10-29T04:36:28;14.10;99.90
37998;DHT22;24079;51.824;4.682;2022-10-29T04:38:53;14.20;99.90
37998;DHT22;24079;51.824;4.682;2022-10-29T04:41:19;14.10;99.90
37998;DHT22;24079;51.824;4.682;2022-10-29T04:43:45;14.10;99.90
37998;DHT22;24079;51.824;4.682;2022-10-29T04:46:10;14.10;99.90
37998;DHT22;24079;51.824;4.682;2022-10-29T04:48:36;14.10;99.90
37998;DHT22;24079;51.824;4.682;2022-10-29T04:51:02;14.20;99.90
37998;DHT22;24079;51.824;4.682;2022-10-29T04:53:28;14.20;99.90
37998;DHT22;24079;51.824;4.682;2022-10-29T04:56:01;14.30;99.90
37998;DHT22;24079;51.824;4.682;2022-10-29T04:58:27;14.30;99.90
37998;DHT22;24079;51.824;4.682;2022-10-29T05:00:57;14.40;99.90
37998;DHT22;24079;51.824;4.682;2022-10-29T05:03:24;14.30;99.90
37998;DHT22;24079;51.824;4.682;2022-10-29T05:05:50;14.30;99.90
37998;DHT22;24079;51.824;4.682;2022-10-29T05:08:15;14.30;99.90
37998;DHT22;24079;51.824;4.682;2022-10-29T05:10:42;14.30;99.90
37998;DHT22;24079;51.824;4.682;2022-10-29T05:13:11;14.40;99.90
37998;DHT22;24079;51.824;4.682;2022-10-29T05:15:38;14.40;99.90
37998;DHT22;24079;51.824;4.682;2022-10-29T05:18:04;14.40;99.90
37998;DHT22;24079;51.824;4.682;2022-10-29T05:20:30;14.50;99.90
37998;DHT22;24079;51.824;4.682;2022-10-29T05:23:05;14.50;99.90
37998;DHT22;24079;51.824;4.682;2022-10-29T05:25:33;14.50;99.90
37998;DHT22;24079;51.824;4.682;2022-10-29T05:28:11;14.50;99.90
37998;DHT22;24079;51.824;4.682;2022-10-29T05:30:37;14.50;99.90
37998;DHT22;24079;51.824;4.682;2022-10-29T05:33:07;14.60;99.90
37998;DHT22;24079;51.824;4.682;2022-10-29T05:35:34;14.50;99.90
37998;DHT22;24079;51.824;4.682;2022-10-29T05:38:00;14.50;99.90
37998;DHT22;24079;51.824;4.682;2022-10-29T05:40:26;14.50;99.90
37998;DHT22;24079;51.824;4.682;2022-10-29T05:42:52;14.50;99.90
37998;DHT22;24079;51.824;4.682;2022-10-29T05:45:17;14.50;99.90
37998;DHT22;24079;51.824;4.682;2022-10-29T05:47:43;14.50;99.90
37998;DHT22;24079;51.824;4.682;2022-10-29T05:50:10;14.50;99.90
37998;DHT22;24079;51.824;4.682;2022-10-29T05:52:35;14.50;99.90
37998;DHT22;24079;51.824;4.682;2022-10-29T05:55:01;14.40;99.90
37998;DHT22;24079;51.824;4.682;2022-10-29T05:57:27;14.50;99.90
37998;DHT22;24079;51.824;4.682;2022-10-29T05:59:53;14.50;99.90
37998;DHT22;24079;51.824;4.682;2022-10-29T06:02:18;14.50;99.90
37998;DHT22;24079;51.824;4.682;2022-10-29T06:04:44;14.50;99.90
37998;DHT22;24079;51.824;4.682;2022-10-29T06:07:10;14.50;99.90
37998;DHT22;24079;51.824;4.682;2022-10-29T06:09:35;14.50;99.90
37998;DHT22;24079;51.824;4.682;2022-10-29T06:12:01;14.60;99.90
37998;DHT22;24079;51.824;4.682;2022-10-29T06:14:26;14.60;99.90
37998;DHT22;24079;51.824;4.682;2022-10-29T06:16:52;14.60;99.90
37998;DHT22;24079;51.824;4.682;2022-10-29T06:19:17;14.60;99.90
37998;DHT22;24079;51.824;4.682;2022-10-29T06:21:43;14.70;99.90
37998;DHT22;24079;51.824;4.682;2022-10-29T06:24:09;14.70;99.90
37998;DHT22;24079;51.824;4.682;2022-10-29T06:26:35;14.80;99.90
37998;DHT22;24079;51.824;4.682;2022-10-29T06:29:04;14.80;99.90
37998;DHT22;24079;51.824;4.682;2022-10-29T06:31:30;14.80;99.90
37998;DHT22;24079;51.824;4.682;2022-10-29T06:33:55;14.90;99.90
37998;DHT22;24079;51.824;4.682;2022-10-29T06:36:21;15.00;99.90
37998;DHT22;24079;51.824;4.682;2022-10-29T06:38:47;15.10;99.90
37998;DHT22;24079;51.824;4.682;2022-10-29T06:41:14;15.10;99.90
37998;DHT22;24079;51.824;4.682;2022-10-29T06:43:39;15.10;99.90
37998;DHT22;24079;51.824;4.682;2022-10-29T06:46:05;15.20;99.90
37998;DHT22;24079;51.824;4.682;2022-10-29T06:48:31;15.20;99.90
37998;DHT22;24079;51.824;4.682;2022-10-29T06:50:58;15.30;99.90
37998;DHT22;24079;51.824;4.682;2022-10-29T06:53:24;15.20;99.90
37998;DHT22;24079;51.824;4.682;2022-10-29T06:55:52;15.20;99.90
37998;DHT22;24079;51.824;4.682;2022-10-29T06:58:19;15.20;99.90
37998;DHT22;24079;51.824;4.682;2022-10-29T07:00:46;15.20;99.90
37998;DHT22;24079;51.824;4.682;2022-10-29T07:03:17;15.30;99.90
37998;DHT22;24079;51.824;4.682;2022-10-29T07:05:43;15.30;99.90
37998;DHT22;24079;51.824;4.682;2022-10-29T07:08:09;15.30;99.90
37998;DHT22;24079;51.824;4.682;2022-10-29T07:10:35;15.40;99.90
37998;DHT22;24079;51.824;4.682;2022-10-29T07:13:01;15.40;99.90
37998;DHT22;24079;51.824;4.682;2022-10-29T07:15:28;15.40;99.90
37998;DHT22;24079;51.824;4.682;2022-10-29T07:17:57;15.40;99.90
37998;DHT22;24079;51.824;4.682;2022-10-29T07:20:24;15.40;99.90
37998;DHT22;24079;51.824;4.682;2022-10-29T07:22:49;15.50;99.90
37998;DHT22;24079;51.824;4.682;2022-10-29T07:25:15;15.50;99.90
37998;DHT22;24079;51.824;4.682;2022-10-29T07:27:41;15.50;99.90
37998;DHT22;24079;51.824;4.682;2022-10-29T07:30:07;15.60;99.90
37998;DHT22;24079;51.824;4.682;2022-10-29T07:32:32;15.60;99.90
37998;DHT22;24079;51.824;4.682;2022-10-29T07:34:58;15.60;99.90
37998;DHT22;24079;51.824;4.682;2022-10-29T07:37:23;15.70;99.90
37998;DHT22;24079;51.824;4.682;2022-10-29T07:39:49;15.70;99.90
37998;DHT22;24079;51.824;4.682;2022-10-29T07:42:14;15.70;99.90
37998;DHT22;24079;51.824;4.682;2022-10-29T07:44:40;15.80;99.90
37998;DHT22;24079;51.824;4.682;2022-10-29T07:47:05;15.80;99.90
37998;DHT22;24079;51.824;4.682;2022-10-29T07:49:31;15.90;99.90
37998;DHT22;24079;51.824;4.682;2022-10-29T07:51:56;16.00;99.90
37998;DHT22;24079;51.824;4.682;2022-10-29T07:54:22;16.10;99.90
37998;DHT22;24079;51.824;4.682;2022-10-29T07:56:51;16.20;99.90
37998;DHT22;24079;51.824;4.682;2022-10-29T07:59:16;16.10;99.90
37998;DHT22;24079;51.824;4.682;2022-10-29T08:01:43;16.30;99.90
37998;DHT22;24079;51.824;4.682;2022-10-29T08:04:09;16.30;99.90
37998;DHT22;24079;51.824;4.682;2022-10-29T08:06:34;16.40;99.90
37998;DHT22;24079;51.824;4.682;2022-10-29T08:09:00;16.50;99.90
37998;DHT22;24079;51.824;4.682;2022-10-29T08:11:25;16.50;99.90
37998;DHT22;24079;51.824;4.682;2022-10-29T08:13:51;16.70;99.90
37998;DHT22;24079;51.824;4.682;2022-10-29T08:16:17;16.80;99.90
37998;DHT22;24079;51.824;4.682;2022-10-29T08:18:42;17.00;99.90
37998;DHT22;24079;51.824;4.682;2022-10-29T08:21:08;17.20;99.90
37998;DHT22;24079;51.824;4.682;2022-10-29T08:23:34;17.30;99.90
37998;DHT22;24079;51.824;4.682;2022-10-29T08:25:59;17.40;99.90
37998;DHT22;24079;51.824;4.682;2022-10-29T08:28:25;17.40;99.90
37998;DHT22;24079;51.824;4.682;2022-10-29T08:30:50;17.40;99.90
37998;DHT22;24079;51.824;4.682;2022-10-29T08:33:16;17.40;99.90
37998;DHT22;24079;51.824;4.682;2022-10-29T08:35:42;17.50;99.90
37998;DHT22;24079;51.824;4.682;2022-10-29T08:38:08;17.50;99.90
37998;DHT22;24079;51.824;4.682;2022-10-29T08:46:56;17.50;99.90
37998;DHT22;24079;51.824;4.682;2022-10-29T08:51:54;17.40;99.90
37998;DHT22;24079;51.824;4.682;2022-10-29T08:54:23;17.40;99.90
37998;DHT22;24079;51.824;4.682;2022-10-29T08:56:54;17.50;99.90
37998;DHT22;24079;51.824;4.682;2022-10-29T08:59:23;17.50;99.90
37998;DHT22;24079;51.824;4.682;2022-10-29T09:01:50;17.50;99.90
37998;DHT22;24079;51.824;4.682;2022-10-29T09:07:03;17.50;99.90
37998;DHT22;24079;51.824;4.682;2022-10-29T09:20:22;17.60;99.90
37998;DHT22;24079;51.824;4.682;2022-10-29T09:25:25;17.60;99.90
37998;DHT22;24079;51.824;4.682;2022-10-29T09:28:28;17.50;99.90
37998;DHT22;24079;51.824;4.682;2022-10-29T09:33:43;17.50;99.90
37998;DHT22;24079;51.824;4.682;2022-10-29T09:36:16;17.50;99.90
37998;DHT22;24079;51.824;4.682;2022-10-29T09:39:08;17.50;99.90
37998;DHT22;24079;51.824;4.682;2022-10-29T09:41:35;17.50;99.90
37998;DHT22;24079;51.824;4.682;2022-10-29T09:44:20;17.60;99.90
37998;DHT22;24079;51.824;4.682;2022-10-29T09:47:06;17.60;99.90
37998;DHT22;24079;51.824;4.682;2022-10-29T09:49:45;17.70;99.90
37998;DHT22;24079;51.824;4.682;2022-10-29T09:52:16;17.80;99.90
37998;DHT22;24079;51.824;4.682;2022-10-29T09:54:47;17.90;99.90
37998;DHT22;24079;51.824;4.682;2022-10-29T09:57:20;18.00;99.90
37998;DHT22;24079;51.824;4.682;2022-10-29T09:59:54;18.10;99.90
37998;DHT22;24079;51.824;4.682;2022-10-29T10:02:32;18.10;99.90
37998;DHT22;24079;51.824;4.682;2022-10-29T10:07:38;18.00;99.90
37998;DHT22;24079;51.824;4.682;2022-10-29T10:10:06;18.10;99.90
37998;DHT22;24079;51.824;4.682;2022-10-29T10:12:45;18.20;99.90
37998;DHT22;24079;51.824;4.682;2022-10-29T10:20:26;18.40;99.90
37998;DHT22;24079;51.824;4.682;2022-10-29T10:22:52;18.40;99.90
37998;DHT22;24079;51.824;4.682;2022-10-29T10:25:36;18.50;99.90
37998;DHT22;24079;51.824;4.682;2022-10-29T10:28:04;18.70;99.90
37998;DHT22;24079;51.824;4.682;2022-10-29T10:30:39;18.80;99.90
37998;DHT22;24079;51.824;4.682;2022-10-29T10:33:25;18.90;99.90
37998;DHT22;24079;51.824;4.682;2022-10-29T10:35:52;19.10;99.90
37998;DHT22;24079;51.824;4.682;2022-10-29T10:38:18;19.30;99.90
37998;DHT22;24079;51.824;4.682;2022-10-29T10:40:56;19.50;99.90
37998;DHT22;24079;51.824;4.682;2022-10-29T10:43:25;19.60;99.90
37998;DHT22;24079;51.824;4.682;2022-10-29T10:45:57;19.70;99.90
37998;DHT22;24079;51.824;4.682;2022-10-29T10:48:24;19.70;99.90
37998;DHT22;24079;51.824;4.682;2022-10-29T10:53:38;19.90;99.90
37998;DHT22;24079;51.824;4.682;2022-10-29T10:56:12;20.00;99.90
37998;DHT22;24079;51.824;4.682;2022-10-29T10:58:46;20.00;99.90
37998;DHT22;24079;51.824;4.682;2022-10-29T11:01:18;19.90;99.90
37998;DHT22;24079;51.824;4.682;2022-10-29T11:03:53;19.80;99.90
37998;DHT22;24079;51.824;4.682;2022-10-29T11:06:25;19.70;99.90
37998;DHT22;24079;51.824;4.682;2022-10-29T11:12:03;19.90;99.90
37998;DHT22;24079;51.824;4.682;2022-10-29T11:14:38;20.00;99.90
37998;DHT22;24079;51.824;4.682;2022-10-29T11:17:28;20.00;99.90
37998;DHT22;24079;51.824;4.682;2022-10-29T11:20:01;20.20;99.90
37998;DHT22;24079;51.824;4.682;2022-10-29T11:22:32;20.30;99.90
37998;DHT22;24079;51.824;4.682;2022-10-29T11:25:17;20.40;99.90
37998;DHT22;24079;51.824;4.682;2022-10-29T11:28:22;20.50;99.90
37998;DHT22;24079;51.824;4.682;2022-10-29T11:31:25;20.50;99.90
37998;DHT22;24079;51.824;4.682;2022-10-29T11:36:23;20.70;99.90
37998;DHT22;24079;51.824;4.682;2022-10-29T11:43:47;21.00;99.90
37998;DHT22;24079;51.824;4.682;2022-10-29T11:49:38;21.30;99.90
37998;DHT22;24079;51.824;4.682;2022-10-29T11:52:11;21.40;99.90
37998;DHT22;24079;51.824;4.682;2022-10-29T11:54:51;21.50;99.90
37998;DHT22;24079;51.824;4.682;2022-10-29T11:57:34;21.60;99.90
37998;DHT22;24079;51.824;4.682;2022-10-29T12:05:39;21.70;99.90
37998;DHT22;24079;51.824;4.682;2022-10-29T12:08:36;21.70;99.90
37998;DHT22;24079;51.824;4.682;2022-10-29T12:11:11;21.70;99.90
37998;DHT22;24079;51.824;4.682;2022-10-29T12:13:54;21.80;99.90
37998;DHT22;24079;51.824;4.682;2022-10-29T12:16:34;21.80;99.90
37998;DHT22;24079;51.824;4.682;2022-10-29T12:24:32;22.10;99.90
37998;DHT22;24079;51.824;4.682;2022-10-29T12:38:28;22.10;99.90
37998;DHT22;24079;51.824;4.682;2022-10-29T12:41:04;22.20;99.90
37998;DHT22;24079;51.824;4.682;2022-10-29T12:43:33;22.30;99.90
37998;DHT22;24079;51.824;4.682;2022-10-29T12:48:36;22.50;99.90
37998;DHT22;24079;51.824;4.682;2022-10-29T12:54:06;22.60;99.90
37998;DHT22;24079;51.824;4.682;2022-10-29T12:56:32;22.70;99.90
37998;DHT22;24079;51.824;4.682;2022-10-29T13:01:50;22.80;99.90
37998;DHT22;24079;51.824;4.682;2022-10-29T13:04:23;22.80;99.90
37998;DHT22;24079;51.824;4.682;2022-10-29T13:07:04;22.80;99.90
37998;DHT22;24079;51.824;4.682;2022-10-29T13:09:33;22.80;99.90
37998;DHT22;24079;51.824;4.682;2022-10-29T13:12:09;22.70;99.90
37998;DHT22;24079;51.824;4.682;2022-10-29T13:15:04;22.60;99.90
37998;DHT22;24079;51.824;4.682;2022-10-29T13:17:36;22.50;99.90
37998;DHT22;24079;51.824;4.682;2022-10-29T13:22:58;22.40;99.90
37998;DHT22;24079;51.824;4.682;2022-10-29T13:30:38;22.20;99.90
37998;DHT22;24079;51.824;4.682;2022-10-29T13:35:56;22.10;99.90
37998;DHT22;24079;51.824;4.682;2022-10-29T13:41:15;22.00;99.90
37998;DHT22;24079;51.824;4.682;2022-10-29T13:44:02;22.00;99.90
37998;DHT22;24079;51.824;4.682;2022-10-29T13:52:10;22.00;99.90
37998;DHT22;24079;51.824;4.682;2022-10-29T13:54:48;22.00;99.90
37998;DHT22;24079;51.824;4.682;2022-10-29T13:57:31;22.00;99.90
37998;DHT22;24079;51.824;4.682;2022-10-29T14:00:16;22.00;99.90
37998;DHT22;24079;51.824;4.682;2022-10-29T14:10:20;22.10;99.90
37998;DHT22;24079;51.824;4.682;2022-10-29T14:12:48;22.10;99.90
37998;DHT22;24079;51.824;4.682;2022-10-29T14:15:15;22.10;99.90
37998;DHT22;24079;51.824;4.682;2022-10-29T14:17:43;22.00;99.90
37998;DHT22;24079;51.824;4.682;2022-10-29T14:20:26;22.00;99.90
37998;DHT22;24079;51.824;4.682;2022-10-29T14:22:52;22.00;99.90
37998;DHT22;24079;51.824;4.682;2022-10-29T14:25:29;22.00;99.90
37998;DHT22;24079;51.824;4.682;2022-10-29T14:30:40;21.90;99.90
37998;DHT22;24079;51.824;4.682;2022-10-29T14:33:26;21.90;99.90
37998;DHT22;24079;51.824;4.682;2022-10-29T14:36:03;21.90;99.90
37998;DHT22;24079;51.824;4.682;2022-10-29T14:38:49;21.90;99.90
37998;DHT22;24079;51.824;4.682;2022-10-29T14:41:16;21.80;99.90
37998;DHT22;24079;51.824;4.682;2022-10-29T14:43:43;21.80;99.90
37998;DHT22;24079;51.824;4.682;2022-10-29T14:46:17;21.70;99.90
37998;DHT22;24079;51.824;4.682;2022-10-29T14:48:55;21.70;99.90
37998;DHT22;24079;51.824;4.682;2022-10-29T14:51:23;21.70;99.90
37998;DHT22;24079;51.824;4.682;2022-10-29T14:53:59;21.70;99.90
37998;DHT22;24079;51.824;4.682;2022-10-29T14:56:32;21.70;99.90
37998;DHT22;24079;51.824;4.682;2022-10-29T14:58:59;21.60;99.90
37998;DHT22;24079;51.824;4.682;2022-10-29T15:01:26;21.60;99.90
37998;DHT22;24079;51.824;4.682;2022-10-29T15:03:58;21.70;99.90
37998;DHT22;24079;51.824;4.682;2022-10-29T15:06:28;21.50;99.90
37998;DHT22;24079;51.824;4.682;2022-10-29T15:09:01;21.50;99.90
37998;DHT22;24079;51.824;4.682;2022-10-29T15:11:37;21.50;99.90
37998;DHT22;24079;51.824;4.682;2022-10-29T15:14:22;21.50;99.90
37998;DHT22;24079;51.824;4.682;2022-10-29T15:16:48;21.40;99.90
37998;DHT22;24079;51.824;4.682;2022-10-29T15:19:14;21.40;99.90
37998;DHT22;24079;51.824;4.682;2022-10-29T15:21:40;21.40;99.90
37998;DHT22;24079;51.824;4.682;2022-10-29T15:24:15;21.40;99.90
37998;DHT22;24079;51.824;4.682;2022-10-29T15:26:54;21.40;99.90
37998;DHT22;24079;51.824;4.682;2022-10-29T15:29:26;21.40;99.90
37998;DHT22;24079;51.824;4.682;2022-10-29T15:31:54;21.30;99.90
37998;DHT22;24079;51.824;4.682;2022-10-29T15:36:51;21.30;99.90
37998;DHT22;24079;51.824;4.682;2022-10-29T15:39:23;21.30;99.90
37998;DHT22;24079;51.824;4.682;2022-10-29T15:41:53;21.30;99.90
37998;DHT22;24079;51.824;4.682;2022-10-29T15:46:58;21.20;99.90
37998;DHT22;24079;51.824;4.682;2022-10-29T15:49:25;21.20;99.90
37998;DHT22;24079;51.824;4.682;2022-10-29T15:51:56;21.10;99.90
37998;DHT22;24079;51.824;4.682;2022-10-29T15:54:23;21.20;99.90
37998;DHT22;24079;51.824;4.682;2022-10-29T15:56:49;21.10;99.90
37998;DHT22;24079;51.824;4.682;2022-10-29T15:59:22;21.00;99.90
37998;DHT22;24079;51.824;4.682;2022-10-29T16:01:49;21.00;99.90
37998;DHT22;24079;51.824;4.682;2022-10-29T16:04:14;20.90;99.90
37998;DHT22;24079;51.824;4.682;2022-10-29T16:06:40;20.90;99.90
37998;DHT22;24079;51.824;4.682;2022-10-29T16:09:05;20.90;99.90
37998;DHT22;24079;51.824;4.682;2022-10-29T16:11:33;20.90;99.90
37998;DHT22;24079;51.824;4.682;2022-10-29T16:13:59;20.80;99.90
37998;DHT22;24079;51.824;4.682;2022-10-29T16:16:24;20.70;99.90
37998;DHT22;24079;51.824;4.682;2022-10-29T16:18:50;20.70;99.90
37998;DHT22;24079;51.824;4.682;2022-10-29T16:21:24;20.70;99.90
37998;DHT22;24079;51.824;4.682;2022-10-29T16:23:51;20.60;99.90
37998;DHT22;24079;51.824;4.682;2022-10-29T16:26:21;20.60;99.90
37998;DHT22;24079;51.824;4.682;2022-10-29T16:28:47;20.60;99.90
37998;DHT22;24079;51.824;4.682;2022-10-29T16:31:23;20.60;99.90
37998;DHT22;24079;51.824;4.682;2022-10-29T16:33:50;20.50;99.90
37998;DHT22;24079;51.824;4.682;2022-10-29T16:36:17;20.60;99.90
37998;DHT22;24079;51.824;4.682;2022-10-29T16:38:42;20.50;99.90
37998;DHT22;24079;51.824;4.682;2022-10-29T16:41:14;20.40;99.90
37998;DHT22;24079;51.824;4.682;2022-10-29T16:43:40;20.30;99.90
37998;DHT22;24079;51.824;4.682;2022-10-29T16:46:06;20.40;99.90
37998;DHT22;24079;51.824;4.682;2022-10-29T16:48:32;20.30;99.90
37998;DHT22;24079;51.824;4.682;2022-10-29T16:50:57;20.30;99.90
37998;DHT22;24079;51.824;4.682;2022-10-29T16:53:23;20.20;99.90
37998;DHT22;24079;51.824;4.682;2022-10-29T16:55:49;20.20;99.90
37998;DHT22;24079;51.824;4.682;2022-10-29T16:58:16;20.10;99.90
37998;DHT22;24079;51.824;4.682;2022-10-29T17:00:42;20.10;99.90
37998;DHT22;24079;51.824;4.682;2022-10-29T17:03:12;20.00;99.90
37998;DHT22;24079;51.824;4.682;2022-10-29T17:05:40;20.00;99.90
37998;DHT22;24079;51.824;4.682;2022-10-29T17:08:07;20.00;99.90
37998;DHT22;24079;51.824;4.682;2022-10-29T17:10:33;20.00;99.90
37998;DHT22;24079;51.824;4.682;2022-10-29T17:12:59;20.00;99.90
37998;DHT22;24079;51.824;4.682;2022-10-29T17:15:24;20.10;99.90
37998;DHT22;24079;51.824;4.682;2022-10-29T17:17:50;20.00;99.90
37998;DHT22;24079;51.824;4.682;2022-10-29T17:20:16;20.00;99.90
37998;DHT22;24079;51.824;4.682;2022-10-29T17:22:41;19.90;99.90
37998;DHT22;24079;51.824;4.682;2022-10-29T17:25:08;20.00;99.90
37998;DHT22;24079;51.824;4.682;2022-10-29T17:27:40;20.00;99.90
37998;DHT22;24079;51.824;4.682;2022-10-29T17:30:06;20.00;99.90
37998;DHT22;24079;51.824;4.682;2022-10-29T17:32:32;20.10;99.90
37998;DHT22;24079;51.824;4.682;2022-10-29T17:34:58;20.20;99.90
37998;DHT22;24079;51.824;4.682;2022-10-29T17:37:24;20.20;99.90
37998;DHT22;24079;51.824;4.682;2022-10-29T17:39:50;20.10;99.90
37998;DHT22;24079;51.824;4.682;2022-10-29T17:42:16;20.20;99.90
37998;DHT22;24079;51.824;4.682;2022-10-29T17:44:41;20.20;99.90
37998;DHT22;24079;51.824;4.682;2022-10-29T17:47:07;20.20;99.90
37998;DHT22;24079;51.824;4.682;2022-10-29T17:49:32;20.20;99.90
37998;DHT22;24079;51.824;4.682;2022-10-29T17:51:58;20.20;99.90
37998;DHT22;24079;51.824;4.682;2022-10-29T17:54:23;20.30;99.90
37998;DHT22;24079;51.824;4.682;2022-10-29T17:56:49;20.20;99.90
37998;DHT22;24079;51.824;4.682;2022-10-29T17:59:16;20.10;99.90
37998;DHT22;24079;51.824;4.682;2022-10-29T18:01:43;20.10;99.90
37998;DHT22;24079;51.824;4.682;2022-10-29T18:04:09;20.00;99.90
37998;DHT22;24079;51.824;4.682;2022-10-29T18:06:34;19.90;99.90
37998;DHT22;24079;51.824;4.682;2022-10-29T18:09:00;19.90;99.90
37998;DHT22;24079;51.824;4.682;2022-10-29T18:11:26;19.90;99.90
37998;DHT22;24079;51.824;4.682;2022-10-29T18:13:52;19.80;99.90